Time;durP1;ratioP1;P1;durP2;ratioP2;P2;SDS_P1;SDS_P2;PMS_P1;PMS_P2;Temp;Humidity;BMP_temperature;BMP_pressure;BME280_temperature;BME280_humidity;BME280_pressure;Samples;Min_cycle;Max_cycle;Signal;HPM_P1;HPM_P2
2023/03/13 00:01:36;;;;;;;17.13;3.30;;;7.60;99.90;;;;;;7400619;19;19921;-77
2023/03/13 00:04:05;;;;;;;13.30;2.65;;;7.60;99.90;;;;;;7403863;19;20335;-77
2023/03/13 00:06:39;;;;;;;11.90;2.92;;;7.50;99.90;;;;;;7403653;19;20220;-76
2023/03/13 00:09:10;;;;;;;19.73;3.88;;;7.70;99.90;;;;;;7399429;19;19914;-78
2023/03/13 00:11:39;;;;;;;15.27;3.58;;;7.70;99.90;;;;;;7405840;19;19915;-75
2023/03/13 00:14:09;;;;;;;18.25;4.10;;;7.70;99.90;;;;;;7404036;19;19925;-75
2023/03/13 00:16:38;;;;;;;18.02;3.70;;;7.60;99.90;;;;;;7404001;19;19921;-77
2023/03/13 00:19:09;;;;;;;20.02;3.70;;;7.60;99.90;;;;;;7401283;19;19922;-77
2023/03/13 00:21:40;;;;;;;15.57;4.47;;;7.60;99.90;;;;;;7401649;19;19928;-75
2023/03/13 00:24:12;;;;;;;13.38;3.25;;;7.90;99.90;;;;;;7403755;19;19926;-75
2023/03/13 00:26:44;;;;;;;17.05;3.85;;;7.60;99.90;;;;;;7399234;19;20587;-76
2023/03/13 00:29:13;;;;;;;21.27;3.60;;;7.60;99.90;;;;;;7401350;19;19915;-75
2023/03/13 00:31:42;;;;;;;14.73;2.80;;;7.60;99.90;;;;;;7404376;19;19942;-75
2023/03/13 00:34:12;;;;;;;24.08;4.22;;;7.60;99.90;;;;;;7403521;19;19926;-76
2023/03/13 00:36:43;;;;;;;23.88;3.45;;;7.50;99.90;;;;;;7401504;19;19922;-75
2023/03/13 00:39:12;;;;;;;20.48;4.07;;;7.60;99.90;;;;;;7404337;19;19923;-75
2023/03/13 00:41:41;;;;;;;20.88;3.08;;;7.50;99.90;;;;;;7400048;19;19961;-75
2023/03/13 00:44:10;;;;;;;20.15;3.03;;;7.50;99.90;;;;;;7402145;19;20360;-75
2023/03/13 00:46:39;;;;;;;20.17;3.88;;;7.60;99.90;;;;;;7399742;19;19919;-75
2023/03/13 00:49:08;;;;;;;20.58;3.85;;;8.30;99.90;;;;;;7399889;19;20019;-75
2023/03/13 00:51:37;;;;;;;21.10;4.80;;;7.50;99.90;;;;;;7403724;19;19923;-75
2023/03/13 00:54:09;;;;;;;24.80;3.38;;;7.60;99.90;;;;;;7404506;19;19945;-75
2023/03/13 00:56:38;;;;;;;17.52;4.05;;;7.50;99.90;;;;;;7400083;19;19922;-75
2023/03/13 00:59:07;;;;;;;18.10;3.03;;;7.50;99.90;;;;;;7399788;19;20271;-75
2023/03/13 01:01:37;;;;;;;19.30;3.92;;;7.50;99.90;;;;;;7401498;19;19918;-76
2023/03/13 01:04:08;;;;;;;17.60;3.00;;;7.50;99.90;;;;;;7400956;19;19918;-75
2023/03/13 01:06:39;;;;;;;16.38;3.05;;;7.50;99.90;;;;;;7399786;19;19921;-75
2023/03/13 01:09:13;;;;;;;21.10;4.50;;;7.40;99.90;;;;;;7399382;19;19947;-76
2023/03/13 01:11:44;;;;;;;18.00;3.65;;;7.60;99.90;;;;;;7402605;19;20341;-75
2023/03/13 01:14:15;;;;;;;22.52;2.88;;;7.60;99.90;;;;;;7399474;19;19934;-75
2023/03/13 01:16:44;;;;;;;22.42;3.88;;;7.60;99.90;;;;;;7400019;19;20225;-75
2023/03/13 01:19:16;;;;;;;11.73;2.92;;;7.50;99.90;;;;;;7401049;19;19923;-75
2023/03/13 01:21:46;;;;;;;10.60;2.25;;;7.50;99.90;;;;;;7407183;19;19918;-75
2023/03/13 01:24:19;;;;;;;25.55;4.03;;;7.60;99.90;;;;;;7406004;19;19926;-75
2023/03/13 01:26:48;;;;;;;16.73;4.22;;;7.50;99.90;;;;;;7405923;19;19925;-76
2023/03/13 01:29:16;;;;;;;12.90;3.42;;;8.20;99.90;;;;;;7406230;19;20359;-75
2023/03/13 01:31:45;;;;;;;18.60;3.42;;;7.50;99.90;;;;;;7408621;19;19919;-75
2023/03/13 01:34:14;;;;;;;16.48;2.75;;;7.50;99.90;;;;;;7406528;19;19923;-74
2023/03/13 01:36:44;;;;;;;16.23;2.55;;;7.50;99.90;;;;;;7406051;19;20352;-75
2023/03/13 01:39:13;;;;;;;16.20;3.05;;;7.50;99.90;;;;;;7409457;19;19915;-75
2023/03/13 01:41:44;;;;;;;16.88;3.42;;;7.60;99.90;;;;;;7404866;19;20245;-75
2023/03/13 01:44:24;;;;;;;11.55;2.42;;;7.50;99.90;;;;;;7406143;19;19919;-75
2023/03/13 01:46:53;;;;;;;12.35;2.67;;;7.70;99.90;;;;;;7405385;19;19914;-75
2023/03/13 01:49:25;;;;;;;15.15;3.17;;;7.50;99.90;;;;;;7405438;19;19919;-74
2023/03/13 01:51:55;;;;;;;;;;;7.60;99.90;;;;;;7408629;19;19918;-76
2023/03/13 01:54:26;;;;;;;10.57;2.85;;;7.40;99.90;;;;;;7406392;19;19926;-75
2023/03/13 01:57:01;;;;;;;11.43;2.60;;;7.10;99.90;;;;;;7406769;19;19923;-74
2023/03/13 01:59:34;;;;;;;13.48;3.38;;;8.80;99.90;;;;;;7408372;19;19919;-74
2023/03/13 02:02:04;;;;;;;19.00;3.90;;;7.40;99.90;;;;;;7403886;19;20241;-77
2023/03/13 02:04:38;;;;;;;27.38;3.40;;;7.50;99.90;;;;;;7405767;19;19922;-75
2023/03/13 02:07:12;;;;;;;16.60;4.15;;;7.40;99.90;;;;;;7404901;19;20026;-75
2023/03/13 02:09:44;;;;;;;15.90;3.03;;;7.40;99.90;;;;;;7405315;19;20280;-75
2023/03/13 02:12:18;;;;;;;13.45;3.35;;;7.40;99.90;;;;;;7404634;19;19955;-75
2023/03/13 02:14:48;;;;;;;18.63;3.28;;;7.30;99.90;;;;;;7402948;19;19934;-75
2023/03/13 02:17:17;;;;;;;15.15;3.03;;;7.40;99.90;;;;;;7407037;19;19958;-75
2023/03/13 02:19:50;;;;;;;14.75;3.50;;;8.60;99.90;;;;;;7409155;19;20551;-75
2023/03/13 02:22:26;;;;;;;8.60;2.67;;;7.40;99.90;;;;;;7404780;19;19933;-75
2023/03/13 02:25:03;;;;;;;13.10;2.53;;;7.50;99.90;;;;;;7408004;19;19937;-76
2023/03/13 02:27:34;;;;;;;;;;;7.40;99.90;;;;;;7410314;19;19930;-76
2023/03/13 02:30:04;;;;;;;15.32;3.22;;;7.40;99.90;;;;;;7404462;19;19919;-76
2023/03/13 02:32:33;;;;;;;14.68;3.38;;;7.50;99.90;;;;;;7403091;19;20336;-75
2023/03/13 02:35:08;;;;;;;16.02;3.42;;;7.40;99.90;;;;;;7407365;19;19922;-75
2023/03/13 02:37:38;;;;;;;17.25;3.47;;;7.40;99.90;;;;;;7404754;19;19923;-76
2023/03/13 02:40:12;;;;;;;15.38;2.90;;;7.60;99.90;;;;;;7403897;19;19915;-76
2023/03/13 02:42:46;;;;;;;11.63;2.50;;;7.50;99.90;;;;;;7399834;19;19930;-75
2023/03/13 02:45:16;;;;;;;14.38;3.20;;;7.60;99.90;;;;;;7405555;19;19929;-76
2023/03/13 02:47:46;;;;;;;9.93;2.50;;;7.40;99.90;;;;;;7401991;19;19923;-76
2023/03/13 02:50:15;;;;;;;12.73;2.75;;;7.50;99.90;;;;;;7407265;19;19954;-76
2023/03/13 02:52:46;;;;;;;15.35;3.53;;;7.50;99.90;;;;;;7403838;19;19927;-75
2023/03/13 02:55:21;;;;;;;11.38;3.00;;;7.90;99.90;;;;;;7401987;19;19922;-76
2023/03/13 02:57:52;;;;;;;12.50;2.83;;;7.40;99.90;;;;;;7403672;19;20375;-75
2023/03/13 03:00:25;;;;;;;10.13;2.70;;;7.40;99.90;;;;;;7403138;19;19918;-75
2023/03/13 03:02:55;;;;;;;10.60;2.78;;;7.50;99.90;;;;;;7405276;19;19939;-76
2023/03/13 03:05:24;;;;;;;12.90;3.13;;;7.50;99.90;;;;;;7405748;19;20329;-76
2023/03/13 03:07:53;;;;;;;9.98;2.42;;;7.50;99.90;;;;;;7405190;19;19922;-76
2023/03/13 03:10:22;;;;;;;6.85;2.22;;;7.50;99.90;;;;;;7403222;19;19914;-76
2023/03/13 03:12:54;;;;;;;14.02;2.20;;;7.50;99.90;;;;;;7402729;19;20272;-76
2023/03/13 03:15:22;;;;;;;8.48;2.40;;;7.60;99.90;;;;;;7403092;19;19919;-76
2023/03/13 03:17:51;;;;;;;9.52;2.13;;;7.60;99.90;;;;;;7402767;19;19921;-76
2023/03/13 03:20:21;;;;;;;10.00;2.28;;;7.60;99.90;;;;;;7402836;19;20340;-76
2023/03/13 03:22:50;;;;;;;9.98;2.30;;;7.60;99.90;;;;;;7403432;19;19926;-76
2023/03/13 03:25:19;;;;;;;8.93;2.38;;;8.10;99.90;;;;;;7402245;19;19922;-77
2023/03/13 03:27:48;;;;;;;5.65;2.00;;;7.70;99.90;;;;;;7406776;19;19927;-76
2023/03/13 03:30:20;;;;;;;8.10;1.98;;;7.70;99.90;;;;;;7402825;19;19914;-76
2023/03/13 03:32:49;;;;;;;8.05;2.33;;;7.70;99.90;;;;;;7402611;19;19918;-77
2023/03/13 03:35:18;;;;;;;5.55;2.00;;;7.60;99.90;;;;;;7402855;19;19925;-76
2023/03/13 03:37:47;;;;;;;5.28;1.50;;;7.60;99.90;;;;;;7402580;19;19919;-77
2023/03/13 03:40:16;;;;;;;7.50;2.15;;;7.60;99.90;;;;;;7401747;19;19918;-77
2023/03/13 03:42:45;;;;;;;6.28;1.65;;;7.70;99.90;;;;;;7401366;19;19915;-77
2023/03/13 03:45:14;;;;;;;5.65;1.50;;;7.60;99.90;;;;;;7401288;19;19918;-77
2023/03/13 03:47:45;;;;;;;3.53;1.48;;;7.70;99.90;;;;;;7400902;19;19927;-76
2023/03/13 03:50:14;;;;;;;8.20;1.65;;;7.80;99.90;;;;;;7402295;19;19915;-76
2023/03/13 03:52:43;;;;;;;6.03;1.38;;;7.70;99.90;;;;;;7403643;19;20356;-76
2023/03/13 03:55:12;;;;;;;4.50;1.25;;;7.90;99.90;;;;;;7402245;19;19929;-76
2023/03/13 03:57:41;;;;;;;4.05;1.10;;;7.80;99.90;;;;;;7400077;19;20307;-76
2023/03/13 04:00:14;;;;;;;3.88;1.17;;;7.70;99.90;;;;;;7401955;19;19914;-76
2023/03/13 04:02:46;;;;;;;2.65;1.17;;;7.80;99.90;;;;;;7400528;19;19943;-76
2023/03/13 04:05:15;;;;;;;4.68;1.48;;;7.80;99.90;;;;;;7402714;19;19922;-77
2023/03/13 04:07:44;;;;;;;5.88;1.23;;;7.90;99.90;;;;;;7401737;19;19928;-77
2023/03/13 04:10:14;;;;;;;2.55;1.10;;;7.90;99.90;;;;;;7401751;19;19923;-77
2023/03/13 04:12:43;;;;;;;3.50;1.42;;;7.90;99.90;;;;;;7403228;19;20356;-77
2023/03/13 04:15:13;;;;;;;2.55;0.95;;;8.00;99.90;;;;;;7400909;19;19945;-77
2023/03/13 04:17:41;;;;;;;4.57;1.30;;;8.00;99.90;;;;;;7401428;19;19918;-78
2023/03/13 04:20:14;;;;;;;3.25;0.63;;;8.00;99.90;;;;;;7405465;19;19927;-76
2023/03/13 04:22:44;;;;;;;4.75;1.20;;;8.00;99.90;;;;;;7400276;19;20326;-76
2023/03/13 04:25:13;;;;;;;2.78;1.23;;;8.10;99.90;;;;;;7402410;19;19922;-76
2023/03/13 04:27:42;;;;;;;2.45;0.98;;;8.00;99.90;;;;;;7401067;19;20260;-76
2023/03/13 04:30:12;;;;;;;1.40;1.00;;;8.00;99.90;;;;;;7401292;19;20011;-76
2023/03/13 04:32:42;;;;;;;4.47;1.20;;;7.90;99.90;;;;;;7400614;19;19926;-76
2023/03/13 04:35:13;;;;;;;4.47;1.33;;;8.10;99.90;;;;;;7401450;19;19911;-76
2023/03/13 04:37:42;;;;;;;3.53;1.45;;;8.10;99.90;;;;;;7401159;19;19921;-76
2023/03/13 04:40:13;;;;;;;2.88;0.95;;;8.20;99.90;;;;;;7401536;19;19921;-76
2023/03/13 04:42:42;;;;;;;2.90;1.02;;;8.20;99.90;;;;;;7401539;19;20277;-76
2023/03/13 04:45:13;;;;;;;2.75;1.02;;;8.20;99.90;;;;;;7401992;19;19928;-76
2023/03/13 04:47:42;;;;;;;3.35;1.38;;;8.30;99.90;;;;;;7400667;19;19918;-76
2023/03/13 04:50:13;;;;;;;2.05;1.30;;;8.40;99.90;;;;;;7399744;19;19926;-77
2023/03/13 04:52:42;;;;;;;3.53;2.00;;;8.30;99.90;;;;;;7398723;19;19915;-76
2023/03/13 04:55:12;;;;;;;3.20;1.08;;;8.40;99.90;;;;;;7407807;19;20268;-76
2023/03/13 04:57:40;;;;;;;1.67;1.00;;;8.40;99.90;;;;;;7406784;19;19921;-75
2023/03/13 05:00:11;;;;;;;1.08;0.88;;;8.60;99.90;;;;;;7410867;19;20245;-75
2023/03/13 05:02:40;;;;;;;2.85;1.25;;;8.50;99.90;;;;;;7405491;19;19911;-76
2023/03/13 05:05:09;;;;;;;2.88;1.08;;;8.50;99.90;;;;;;7407820;19;20020;-75
2023/03/13 05:07:41;;;;;;;2.78;1.38;;;8.60;99.90;;;;;;7406945;19;19938;-76
2023/03/13 05:10:11;;;;;;;3.17;2.10;;;8.60;99.90;;;;;;7409734;19;19924;-76
2023/03/13 05:12:40;;;;;;;2.17;1.35;;;8.60;99.90;;;;;;7406398;19;19922;-75
2023/03/13 05:15:10;;;;;;;2.25;1.48;;;8.60;99.90;;;;;;7410506;19;19922;-76
2023/03/13 05:17:39;;;;;;;4.25;1.52;;;8.70;99.90;;;;;;7406502;19;19918;-75
2023/03/13 05:20:10;;;;;;;2.45;1.40;;;8.70;99.90;;;;;;7407027;19;19922;-76
2023/03/13 05:22:42;;;;;;;4.32;1.70;;;8.80;99.90;;;;;;7402880;19;19918;-76
2023/03/13 05:25:12;;;;;;;4.30;1.48;;;8.80;99.90;;;;;;7409379;19;19998;-76
2023/03/13 05:27:40;;;;;;;2.50;1.23;;;8.80;99.90;;;;;;7405480;19;19925;-76
2023/03/13 05:30:12;;;;;;;2.22;1.52;;;9.00;99.90;;;;;;7406368;19;20353;-76
2023/03/13 05:32:41;;;;;;;2.53;1.55;;;8.90;99.90;;;;;;7406674;19;19915;-76
2023/03/13 05:35:10;;;;;;;3.13;1.80;;;8.90;99.90;;;;;;7406086;19;19910;-76
2023/03/13 05:37:42;;;;;;;3.55;1.40;;;9.00;99.90;;;;;;7406505;19;19927;-76
2023/03/13 05:40:12;;;;;;;2.50;1.63;;;9.10;99.90;;;;;;7410689;19;19915;-75
2023/03/13 05:42:41;;;;;;;3.72;2.00;;;9.10;99.90;;;;;;7408623;19;19922;-76
2023/03/13 05:45:12;;;;;;;3.63;1.98;;;9.10;99.90;;;;;;7408161;19;19926;-75
2023/03/13 05:47:41;;;;;;;4.78;1.92;;;9.20;99.90;;;;;;7405390;19;19914;-75
2023/03/13 05:50:11;;;;;;;3.50;2.20;;;9.20;99.90;;;;;;7406054;19;19914;-76
2023/03/13 05:52:43;;;;;;;3.28;2.00;;;9.40;99.90;;;;;;7409579;19;19970;-76
2023/03/13 05:55:12;;;;;;;3.95;2.20;;;9.40;99.90;;;;;;7405603;19;19970;-76
2023/03/13 05:57:41;;;;;;;3.28;2.20;;;9.50;99.90;;;;;;7409927;19;20260;-76
2023/03/13 06:00:11;;;;;;;6.40;1.90;;;9.40;99.90;;;;;;7410993;19;19926;-75
2023/03/13 06:02:40;;;;;;;4.22;2.45;;;9.30;99.90;;;;;;7405624;19;19989;-76
2023/03/13 06:05:10;;;;;;;4.35;2.47;;;9.40;99.90;;;;;;7407500;19;19918;-75
2023/03/13 06:07:42;;;;;;;2.38;1.77;;;9.70;99.90;;;;;;7404024;19;19929;-76
2023/03/13 06:10:13;;;;;;;3.22;1.98;;;9.70;99.90;;;;;;7408496;19;19919;-75
2023/03/13 06:12:41;;;;;;;4.15;2.03;;;9.80;99.90;;;;;;7407027;19;19915;-75
2023/03/13 06:15:11;;;;;;;4.22;2.20;;;9.70;99.90;;;;;;7406644;19;19929;-75
2023/03/13 06:17:40;;;;;;;3.78;1.92;;;9.70;99.90;;;;;;7404644;19;19946;-76
2023/03/13 06:20:11;;;;;;;6.55;2.20;;;9.80;99.90;;;;;;7406721;19;19918;-76
2023/03/13 06:22:43;;;;;;;2.45;1.45;;;9.90;99.90;;;;;;7402082;19;19929;-76
2023/03/13 06:25:12;;;;;;;3.70;1.70;;;10.00;99.90;;;;;;7403646;19;19918;-75
2023/03/13 06:27:43;;;;;;;3.95;1.70;;;9.90;99.90;;;;;;7404209;19;19911;-75
2023/03/13 06:30:15;;;;;;;2.40;1.58;;;9.80;99.90;;;;;;7405004;19;19923;-76
2023/03/13 06:32:44;;;;;;;1.95;1.35;;;10.00;99.90;;;;;;7404152;19;20336;-76
2023/03/13 06:35:13;;;;;;;5.32;1.77;;;10.00;99.90;;;;;;7403900;19;19915;-76
2023/03/13 06:37:44;;;;;;;2.47;1.65;;;9.90;99.90;;;;;;7403848;19;20337;-76
2023/03/13 06:40:14;;;;;;;3.67;1.90;;;9.90;99.90;;;;;;7403423;19;19911;-75
2023/03/13 06:42:43;;;;;;;3.70;1.98;;;10.00;99.90;;;;;;7404093;19;19918;-75
2023/03/13 06:45:13;;;;;;;3.33;1.85;;;10.10;99.90;;;;;;7402954;19;19917;-77
2023/03/13 06:47:42;;;;;;;3.08;1.83;;;10.00;99.90;;;;;;7403726;19;19919;-75
2023/03/13 06:50:12;;;;;;;3.85;1.98;;;10.10;99.90;;;;;;7404085;19;19919;-74
2023/03/13 06:52:43;;;;;;;3.60;2.30;;;10.10;99.90;;;;;;7403178;19;19928;-75
2023/03/13 06:55:13;;;;;;;4.30;2.13;;;10.20;99.90;;;;;;7404448;19;19925;-75
2023/03/13 06:57:43;;;;;;;4.72;2.05;;;10.20;99.90;;;;;;7407394;19;20389;-75
2023/03/13 07:00:14;;;;;;;4.45;1.85;;;10.30;99.90;;;;;;7403348;19;19926;-74
2023/03/13 07:02:43;;;;;;;2.22;1.45;;;10.30;99.90;;;;;;7404295;19;19926;-74
2023/03/13 07:05:13;;;;;;;3.67;2.10;;;10.50;99.90;;;;;;7403867;19;19918;-73
2023/03/13 07:07:45;;;;;;;4.05;2.08;;;10.40;99.90;;;;;;7403403;19;20343;-74
2023/03/13 07:10:14;;;;;;;4.07;1.67;;;10.30;99.90;;;;;;7403254;19;19914;-76
2023/03/13 07:12:43;;;;;;;7.82;2.65;;;10.50;99.90;;;;;;7402711;19;19925;-76
2023/03/13 07:15:13;;;;;;;8.52;4.28;;;10.40;99.90;;;;;;7403087;19;19926;-75
2023/03/13 07:17:42;;;;;;;8.73;2.67;;;10.40;99.90;;;;;;7404216;19;19918;-74
2023/03/13 07:20:12;;;;;;;5.50;2.78;;;10.40;99.90;;;;;;7404574;19;19918;-75
2023/03/13 07:22:44;;;;;;;7.03;2.60;;;10.50;99.90;;;;;;7404045;19;19914;-75
2023/03/13 07:25:13;;;;;;;9.07;3.22;;;10.50;99.90;;;;;;7401417;19;19927;-75
2023/03/13 07:27:42;;;;;;;7.93;2.97;;;10.60;99.90;;;;;;7404472;19;19926;-75
2023/03/13 07:30:13;;;;;;;6.18;2.38;;;10.60;99.90;;;;;;7405619;19;19922;-75
2023/03/13 07:32:42;;;;;;;8.55;2.15;;;10.60;99.90;;;;;;7406529;19;19918;-75
2023/03/13 07:35:11;;;;;;;4.70;2.03;;;10.60;99.90;;;;;;7402494;19;19919;-75
2023/03/13 07:37:40;;;;;;;6.63;2.35;;;10.80;99.90;;;;;;7400632;19;19918;-75
2023/03/13 07:40:13;;;;;;;7.53;2.45;;;10.70;99.90;;;;;;7406128;19;19922;-75
2023/03/13 07:42:42;;;;;;;6.10;2.25;;;10.70;99.90;;;;;;7404799;19;19922;-74
2023/03/13 07:45:12;;;;;;;11.90;2.60;;;10.70;99.90;;;;;;7401453;19;19933;-75
2023/03/13 07:47:41;;;;;;;10.32;2.63;;;10.70;99.90;;;;;;7401906;19;20276;-74
2023/03/13 07:50:11;;;;;;;5.97;2.30;;;10.50;99.90;;;;;;7400969;19;19914;-75
2023/03/13 07:52:40;;;;;;;8.80;2.08;;;10.70;99.90;;;;;;7401032;19;19923;-75
2023/03/13 07:55:12;;;;;;;5.68;2.20;;;10.60;99.90;;;;;;7403657;19;19922;-74
2023/03/13 07:57:41;;;;;;;4.40;2.15;;;10.70;99.90;;;;;;7402137;19;19921;-75
2023/03/13 08:00:15;;;;;;;9.38;2.70;;;10.60;99.90;;;;;;7403440;19;19925;-74
2023/03/13 08:02:44;;;;;;;4.85;1.67;;;10.60;99.90;;;;;;7400705;19;19923;-75
2023/03/13 08:05:13;;;;;;;7.53;2.10;;;10.60;99.90;;;;;;7398294;19;20344;-75
2023/03/13 08:07:42;;;;;;;4.53;2.05;;;10.60;99.90;;;;;;7401576;19;19986;-74
2023/03/13 08:10:14;;;;;;;4.63;2.50;;;10.70;99.90;;;;;;7405285;19;19979;-75
2023/03/13 08:12:42;;;;;;;;;;;10.60;99.90;;;;;;7407416;19;20299;-75
2023/03/13 08:15:12;;;;;;;4.72;1.83;;;10.70;99.90;;;;;;7404131;19;19918;-74
2023/03/13 08:17:41;;;;;;;8.07;2.60;;;10.70;99.90;;;;;;7401657;19;19970;-74
2023/03/13 08:20:12;;;;;;;3.63;2.33;;;10.70;99.90;;;;;;7404073;19;20596;-75
2023/03/13 08:22:41;;;;;;;4.70;2.10;;;10.60;99.90;;;;;;7400912;19;20268;-75
2023/03/13 08:25:12;;;;;;;5.18;1.50;;;10.60;99.90;;;;;;7400175;19;20348;-74
2023/03/13 08:27:42;;;;;;;4.72;1.52;;;10.60;99.90;;;;;;7401191;19;19945;-75
2023/03/13 08:30:13;;;;;;;3.30;1.48;;;10.60;99.90;;;;;;7399462;19;20322;-75
2023/03/13 08:32:41;;;;;;;5.65;1.67;;;10.70;99.90;;;;;;7403987;19;20419;-75
2023/03/13 08:35:11;;;;;;;1.77;1.15;;;10.60;99.90;;;;;;7400647;19;20349;-74
2023/03/13 08:37:40;;;;;;;3.78;1.30;;;10.60;99.90;;;;;;7399253;19;19919;-74
2023/03/13 08:40:12;;;;;;;3.30;1.45;;;10.60;99.90;;;;;;7402309;19;19918;-75
2023/03/13 08:42:44;;;;;;;3.45;1.45;;;10.50;99.90;;;;;;7400622;19;19918;-74
2023/03/13 08:45:13;;;;;;;2.22;1.00;;;10.50;99.90;;;;;;7398698;19;20341;-75
2023/03/13 08:47:42;;;;;;;1.70;0.90;;;10.60;99.90;;;;;;7400123;19;20329;-74
2023/03/13 08:50:12;;;;;;;3.42;0.80;;;10.70;99.90;;;;;;7400345;19;19927;-75
2023/03/13 08:52:41;;;;;;;3.38;0.90;;;10.70;99.90;;;;;;7399033;19;19915;-75
2023/03/13 08:55:11;;;;;;;2.30;0.68;;;10.80;99.90;;;;;;7403755;19;20269;-74
2023/03/13 08:57:39;;;;;;;1.73;0.73;;;10.90;99.90;;;;;;7401495;19;19927;-76
2023/03/13 09:00:14;;;;;;;2.72;0.80;;;10.90;99.90;;;;;;7400790;19;19919;-75
2023/03/13 09:02:43;;;;;;;1.55;0.68;;;11.30;99.90;;;;;;7401993;19;19923;-75
2023/03/13 09:05:12;;;;;;;2.03;0.70;;;11.10;99.90;;;;;;7397208;19;19915;-73
2023/03/13 09:07:41;;;;;;;3.03;0.65;;;11.30;99.90;;;;;;7403346;19;19918;-77
2023/03/13 09:10:11;;;;;;;1.52;0.70;;;11.30;99.90;;;;;;7401925;19;19922;-75
2023/03/13 09:12:40;;;;;;;2.88;0.90;;;11.60;99.90;;;;;;7398399;19;19986;-74
2023/03/13 09:15:13;;;;;;;0.75;0.40;;;11.40;99.90;;;;;;7402519;19;19925;-74
2023/03/13 09:17:42;;;;;;;1.42;0.73;;;11.50;99.90;;;;;;7399378;19;19922;-74
2023/03/13 09:20:13;;;;;;;2.42;0.70;;;11.50;99.90;;;;;;7399253;19;20256;-74
2023/03/13 09:22:42;;;;;;;4.50;1.10;;;11.50;99.90;;;;;;7399337;19;20273;-74
2023/03/13 09:25:11;;;;;;;3.53;0.90;;;11.50;99.90;;;;;;7397804;19;19919;-74
2023/03/13 09:27:40;;;;;;;1.33;0.85;;;11.70;99.90;;;;;;7400299;19;20348;-74
2023/03/13 09:30:14;;;;;;;2.00;0.90;;;11.60;99.90;;;;;;7398748;19;19925;-73
2023/03/13 09:32:43;;;;;;;3.30;1.20;;;11.70;99.90;;;;;;7398851;19;19931;-74
2023/03/13 09:35:12;;;;;;;3.67;0.88;;;11.80;99.90;;;;;;7398915;19;19935;-74
2023/03/13 09:37:40;;;;;;;2.70;1.00;;;11.80;99.90;;;;;;7399525;19;19914;-74
2023/03/13 09:40:15;;;;;;;4.55;1.17;;;11.80;99.90;;;;;;7399059;19;19919;-74
2023/03/13 09:42:50;;;;;;;2.47;0.90;;;11.60;99.90;;;;;;7405249;19;19914;-74
2023/03/13 09:45:32;;;;;;;3.70;1.10;;;11.70;99.90;;;;;;7403255;19;19914;-74
2023/03/13 09:48:08;;;;;;;2.63;0.80;;;11.60;99.90;;;;;;7405805;19;19919;-74
2023/03/13 09:50:41;;;;;;;4.55;1.08;;;11.50;99.90;;;;;;7407265;19;19925;-73
2023/03/13 09:53:17;;;;;;;5.10;1.30;;;11.50;99.90;;;;;;7402246;19;20344;-74
2023/03/13 09:55:47;;;;;;;4.72;1.40;;;11.50;99.90;;;;;;7405951;19;20142;-74
2023/03/13 09:58:19;;;;;;;5.10;1.23;;;11.40;99.90;;;;;;7408420;19;19926;-74
2023/03/13 10:00:55;;;;;;;5.10;1.20;;;11.20;99.90;;;;;;7404343;19;20272;-74
2023/03/13 10:03:29;;;;;;;3.20;1.10;;;11.30;99.90;;;;;;7408471;19;19925;-73
2023/03/13 10:06:01;;;;;;;3.22;1.10;;;11.40;99.90;;;;;;7402916;19;19926;-73
2023/03/13 10:08:33;;;;;;;6.55;1.55;;;11.30;99.90;;;;;;7405170;19;19922;-74
2023/03/13 10:11:08;;;;;;;3.90;1.67;;;11.40;99.90;;;;;;7404315;19;19922;-73
2023/03/13 10:13:43;;;;;;;5.30;1.08;;;11.60;99.90;;;;;;7404079;19;19918;-73
2023/03/13 10:16:19;;;;;;;6.22;1.00;;;11.60;99.90;;;;;;7403854;19;20245;-74
2023/03/13 10:18:54;;;;;;;5.85;1.02;;;12.00;99.90;;;;;;7405040;19;19937;-74
2023/03/13 10:21:26;;;;;;;4.38;1.10;;;12.20;99.90;;;;;;7407177;19;19922;-74
2023/03/13 10:24:00;;;;;;;4.68;1.52;;;12.30;99.90;;;;;;7404438;19;20019;-74
2023/03/13 10:26:31;;;;;;;3.60;1.08;;;12.40;99.90;;;;;;7404087;19;20384;-74
2023/03/13 10:29:03;;;;;;;5.32;1.25;;;12.60;99.90;;;;;;7405098;19;19992;-75
2023/03/13 10:31:39;;;;;;;6.70;1.42;;;12.50;99.90;;;;;;7403912;19;19925;-75
2023/03/13 10:34:08;;;;;;;4.13;1.10;;;12.50;99.90;;;;;;7403861;19;19914;-75
2023/03/13 10:36:42;;;;;;;7.70;1.10;;;12.50;99.90;;;;;;7406164;19;19954;-76
2023/03/13 10:39:17;;;;;;;4.97;1.42;;;12.60;99.90;;;;;;7403028;19;19922;-76
2023/03/13 10:41:46;;;;;;;3.80;1.33;;;12.60;99.90;;;;;;7403993;19;19911;-75
2023/03/13 10:44:19;;;;;;;6.88;1.33;;;12.50;99.90;;;;;;7403824;19;19929;-75
2023/03/13 10:46:52;;;;;;;6.15;1.20;;;12.70;99.90;;;;;;7402611;19;20350;-76
2023/03/13 10:49:23;;;;;;;3.97;1.25;;;12.70;99.90;;;;;;7404057;19;20389;-76
2023/03/13 10:51:54;;;;;;;4.10;1.10;;;12.60;99.90;;;;;;7404835;19;19945;-76
2023/03/13 10:54:26;;;;;;;3.75;1.20;;;12.80;99.90;;;;;;7404747;19;19962;-76
2023/03/13 10:57:11;;;;;;;8.40;2.85;;;12.70;99.90;;;;;;7407042;19;19918;-76
2023/03/13 10:59:45;;;;;;;5.43;1.30;;;12.70;99.90;;;;;;7403340;19;19922;-76
2023/03/13 11:02:29;;;;;;;4.05;1.20;;;12.80;99.90;;;;;;7405509;19;19950;-76
2023/03/13 11:04:58;;;;;;;5.40;1.20;;;12.70;99.90;;;;;;7405275;19;19922;-79
2023/03/13 11:07:30;;;;;;;4.25;1.25;;;12.80;99.90;;;;;;7404249;19;19927;-73
2023/03/13 11:10:04;;;;;;;4.40;1.33;;;12.80;99.90;;;;;;7403361;19;19925;-73
2023/03/13 11:12:36;;;;;;;6.65;1.38;;;12.90;99.90;;;;;;7406559;19;19919;-72
2023/03/13 11:15:14;;;;;;;7.32;1.40;;;12.80;99.90;;;;;;7407870;19;20260;-72
2023/03/13 11:17:51;;;;;;;14.00;1.92;;;13.10;99.90;;;;;;7404187;19;20642;-73
2023/03/13 11:20:26;;;;;;;5.18;1.10;;;13.00;99.90;;;;;;7406371;19;19974;-72
2023/03/13 11:23:10;;;;;;;3.35;1.40;;;12.80;99.90;;;;;;7402692;19;19925;-72
2023/03/13 11:25:45;;;;;;;6.10;1.35;;;12.80;99.90;;;;;;7403035;19;19921;-74
2023/03/13 11:28:29;;;;;;;8.85;2.00;;;12.90;99.90;;;;;;7403113;19;19930;-73
2023/03/13 11:31:17;;;;;;;4.07;1.27;;;13.00;99.90;;;;;;7402682;19;19933;-73
2023/03/13 11:33:57;;;;;;;7.45;1.10;;;12.90;99.90;;;;;;7404816;19;19998;-73
2023/03/13 11:36:35;;;;;;;4.63;1.00;;;13.00;99.90;;;;;;7402223;19;20018;-70
2023/03/13 11:39:15;;;;;;;3.95;0.93;;;13.20;99.90;;;;;;7401782;19;19923;-73
2023/03/13 11:41:59;;;;;;;5.55;1.20;;;13.10;99.90;;;;;;7405932;19;20014;-72
2023/03/13 11:44:36;;;;;;;7.80;1.67;;;13.20;99.90;;;;;;7404132;19;19923;-73
2023/03/13 11:47:27;;;;;;;5.13;1.27;;;13.30;99.90;;;;;;7402303;19;19923;-73
2023/03/13 11:50:15;;;;;;;5.45;1.20;;;13.30;99.90;;;;;;7404329;19;20393;-75
2023/03/13 11:53:10;;;;;;;5.20;1.10;;;13.60;99.90;;;;;;7404624;19;19915;-75
2023/03/13 11:55:45;;;;;;;11.57;1.58;;;13.60;99.90;;;;;;7400187;19;20305;-75
2023/03/13 11:58:33;;;;;;;6.40;1.23;;;13.60;99.90;;;;;;7401743;19;19946;-76
2023/03/13 12:01:05;;;;;;;4.32;1.10;;;13.60;99.90;;;;;;7404840;19;20337;-76
2023/03/13 12:03:41;;;;;;;4.15;1.00;;;13.70;99.90;;;;;;7398998;19;19925;-76
2023/03/13 12:06:24;;;;;;;5.80;0.95;;;13.60;99.90;;;;;;7399577;19;19970;-76
2023/03/13 12:08:55;;;;;;;;;;;13.80;99.90;;;;;;7404988;19;19933;-73
2023/03/13 12:11:28;;;;;;;3.05;1.10;;;13.90;99.90;;;;;;7403506;19;19929;-74
2023/03/13 12:14:01;;;;;;;4.05;1.00;;;13.80;99.90;;;;;;7403550;19;19923;-74
2023/03/13 12:16:43;;;;;;;3.58;0.82;;;13.80;99.90;;;;;;7400578;19;19935;-74
2023/03/13 12:19:16;;;;;;;5.13;1.55;;;13.70;99.90;;;;;;7404198;19;20014;-74
2023/03/13 12:21:52;;;;;;;7.10;0.80;;;13.90;99.90;;;;;;7404899;19;19930;-73
2023/03/13 12:24:29;;;;;;;5.03;0.90;;;13.90;99.90;;;;;;7402133;19;19923;-74
2023/03/13 12:27:04;;;;;;;4.10;1.08;;;14.10;99.90;;;;;;7400670;19;19918;-74
2023/03/13 12:29:45;;;;;;;3.25;0.90;;;14.10;99.90;;;;;;7403448;19;19946;-73
2023/03/13 12:32:21;;;;;;;2.80;0.90;;;14.10;99.90;;;;;;7400972;19;19915;-74
2023/03/13 12:35:00;;;;;;;3.45;0.80;;;14.40;99.90;;;;;;7400507;19;19928;-74
2023/03/13 12:37:40;;;;;;;5.20;0.82;;;14.40;99.90;;;;;;7400846;19;20408;-73
2023/03/13 12:40:22;;;;;;;1.90;0.90;;;14.40;99.90;;;;;;7400125;19;19930;-73
2023/03/13 12:42:59;;;;;;;2.95;0.82;;;14.30;99.90;;;;;;7402982;19;19918;-73
2023/03/13 12:45:29;;;;;;;4.15;0.60;;;14.20;99.90;;;;;;7399466;19;19925;-74
2023/03/13 12:48:33;;;;;;;4.88;1.50;;;14.10;99.90;;;;;;7402053;19;19922;-73
2023/03/13 12:51:17;;;;;;;6.25;1.00;;;14.00;99.90;;;;;;7397588;19;20351;-74
2023/03/13 12:54:08;;;;;;;6.55;1.08;;;14.00;99.90;;;;;;7401893;19;19925;-74
2023/03/13 12:56:57;;;;;;;2.78;0.80;;;14.00;99.90;;;;;;7402329;19;19971;-73
2023/03/13 12:59:29;;;;;;;6.15;1.02;;;14.10;99.90;;;;;;7404581;19;19915;-72
2023/03/13 13:01:58;;;;;;;5.38;1.00;;;14.30;99.90;;;;;;7403013;19;19998;-72
2023/03/13 13:04:29;;;;;;;3.20;1.20;;;14.20;99.90;;;;;;7402426;19;19919;-73
2023/03/13 13:07:01;;;;;;;5.38;1.20;;;14.10;99.90;;;;;;7401085;19;19939;-74
2023/03/13 13:09:35;;;;;;;6.63;1.30;;;14.10;99.90;;;;;;7401706;19;19994;-74
2023/03/13 13:12:05;;;;;;;5.28;0.85;;;14.20;99.90;;;;;;7401058;19;19958;-75
2023/03/13 13:15:03;;;;;;;3.30;1.10;;;14.20;99.90;;;;;;7402842;19;19926;-75